createdAt,value
2019-04-25T00:02:06.317Z,9.20
2019-04-25T00:04:36.931Z,9.20
2019-04-25T00:07:06.251Z,9.30
2019-04-25T00:09:42.760Z,9.20
2019-04-25T00:12:13.736Z,9.20
2019-04-25T00:14:43.768Z,9.10
2019-04-25T00:17:13.479Z,9.20
2019-04-25T00:19:43.351Z,9.20
2019-04-25T00:22:32.000Z,9.10
2019-04-25T00:25:41.515Z,9.10
2019-04-25T00:28:11.631Z,9.10
2019-04-25T00:30:43.296Z,9.10
2019-04-25T00:33:11.882Z,9.20
2019-04-25T00:35:42.527Z,9.10
2019-04-25T00:38:12.256Z,9.10
2019-04-25T00:40:42.741Z,9.10
2019-04-25T00:43:12.551Z,9.10
2019-04-25T00:45:43.609Z,9.10
2019-04-25T00:48:12.587Z,9.00
2019-04-25T00:50:43.292Z,9.00
2019-04-25T00:53:12.712Z,9.00
2019-04-25T00:55:43.049Z,9.00
2019-04-25T00:58:19.073Z,9.00
2019-04-25T01:01:06.471Z,9.00
2019-04-25T01:03:36.308Z,9.00
2019-04-25T01:06:05.680Z,9.00
2019-04-25T01:08:34.907Z,9.00
2019-04-25T01:11:04.399Z,9.00
2019-04-25T01:13:33.952Z,9.00
2019-04-25T01:16:04.133Z,9.00
2019-04-25T01:18:33.874Z,8.90
2019-04-25T01:21:05.201Z,9.00
2019-04-25T01:23:34.838Z,9.00
2019-04-25T01:26:04.071Z,9.00
2019-04-25T01:28:33.883Z,9.00
2019-04-25T01:31:05.737Z,9.00
2019-04-25T01:33:35.344Z,9.00
2019-04-25T01:36:13.309Z,9.00
2019-04-25T01:38:53.631Z,9.00
2019-04-25T01:41:54.978Z,8.90
2019-04-25T01:44:31.759Z,8.90
2019-04-25T01:47:01.376Z,8.90
2019-04-25T01:49:31.178Z,8.90
2019-04-25T01:52:00.413Z,8.90
2019-04-25T01:54:29.904Z,8.90
2019-04-25T01:56:59.711Z,8.90
2019-04-25T01:59:29.200Z,8.80
2019-04-25T02:01:58.845Z,8.80
2019-04-25T02:04:28.154Z,8.80
2019-04-25T02:06:57.613Z,8.80
2019-04-25T02:09:26.859Z,8.80
2019-04-25T02:12:24.778Z,8.80
2019-04-25T02:14:54.753Z,8.80
2019-04-25T02:17:25.353Z,8.80
2019-04-25T02:19:56.441Z,8.80
2019-04-25T02:22:25.562Z,8.90
2019-04-25T02:24:55.871Z,8.90
2019-04-25T02:27:25.500Z,8.90
2019-04-25T02:29:55.975Z,9.00
2019-04-25T02:32:26.047Z,9.10
2019-04-25T02:34:59.612Z,9.20
2019-04-25T02:37:26.461Z,9.20
2019-04-25T02:39:58.434Z,9.20
2019-04-25T02:42:26.616Z,9.20
2019-04-25T02:45:16.126Z,9.20
2019-04-25T02:48:16.265Z,9.10
2019-04-25T02:51:06.171Z,9.00
2019-04-25T02:53:37.628Z,9.00
2019-04-25T02:56:26.147Z,9.00
2019-04-25T02:58:38.317Z,9.00
2019-04-25T03:01:18.029Z,9.00
2019-04-25T03:03:41.660Z,9.10
2019-04-25T03:06:10.853Z,9.20
2019-04-25T03:08:40.034Z,9.30
2019-04-25T03:11:09.411Z,9.40
2019-04-25T03:13:38.861Z,9.50
2019-04-25T03:16:10.785Z,9.60
2019-04-25T03:18:48.627Z,9.70
2019-04-25T03:21:24.950Z,9.70
2019-04-25T03:23:55.104Z,9.80
2019-04-25T03:26:24.782Z,9.80
2019-04-25T03:28:54.389Z,9.80
2019-04-25T03:31:27.010Z,9.90
2019-04-25T03:33:55.826Z,9.90
2019-04-25T03:36:25.354Z,9.90
2019-04-25T03:38:54.873Z,10.00
2019-04-25T03:41:24.607Z,10.00
2019-04-25T03:43:54.546Z,10.00
2019-04-25T03:46:23.840Z,10.00
2019-04-25T03:48:53.969Z,10.00
2019-04-25T03:51:24.047Z,10.00
2019-04-25T03:53:53.646Z,10.00
2019-04-25T03:56:22.934Z,9.90
2019-04-25T03:58:53.968Z,9.90
2019-04-25T04:01:24.259Z,9.90
2019-04-25T04:03:54.232Z,10.00
2019-04-25T04:06:24.116Z,10.00
2019-04-25T04:08:53.920Z,10.00
2019-04-25T04:11:23.821Z,9.90
2019-04-25T04:13:53.545Z,10.00
2019-04-25T04:16:27.894Z,10.00
2019-04-25T04:18:57.862Z,10.10
2019-04-25T04:21:45.272Z,10.10
2019-04-25T04:24:27.164Z,10.10
2019-04-25T04:27:10.803Z,10.20
2019-04-25T04:29:40.334Z,10.20
2019-04-25T04:32:10.490Z,10.30
2019-04-25T04:34:40.226Z,10.30
2019-04-25T04:37:09.758Z,10.40
2019-04-25T04:39:38.963Z,10.40
2019-04-25T04:42:08.435Z,10.50
2019-04-25T04:44:37.980Z,10.50
2019-04-25T04:47:08.464Z,10.60
2019-04-25T04:49:37.892Z,10.60
2019-04-25T04:52:07.052Z,10.70
2019-04-25T04:54:36.230Z,10.70
2019-04-25T04:57:18.719Z,10.70
2019-04-25T04:59:36.990Z,10.70
2019-04-25T05:02:24.475Z,10.70
2019-04-25T05:05:06.138Z,10.70
2019-04-25T05:07:48.386Z,10.70
2019-04-25T05:10:19.047Z,10.70
2019-04-25T05:12:48.914Z,10.70
2019-04-25T05:15:19.106Z,10.80
2019-04-25T05:17:49.042Z,10.80
2019-04-25T05:20:18.900Z,10.80
2019-04-25T05:22:48.445Z,10.90
2019-04-25T05:25:18.065Z,11.00
2019-04-25T05:28:00.073Z,11.10
2019-04-25T05:30:26.519Z,11.20
2019-04-25T05:32:56.115Z,11.30
2019-04-25T05:35:25.666Z,11.30
2019-04-25T05:37:55.260Z,11.20
2019-04-25T05:40:25.374Z,11.20
2019-04-25T05:43:03.306Z,11.20
2019-04-25T05:45:34.072Z,11.20
2019-04-25T05:48:25.062Z,11.30
2019-04-25T05:50:53.834Z,11.40
2019-04-25T05:53:24.158Z,11.50
2019-04-25T05:55:54.361Z,11.60
2019-04-25T05:58:24.830Z,11.70
2019-04-25T06:00:55.526Z,11.80
2019-04-25T06:03:26.040Z,11.90
2019-04-25T06:05:55.552Z,11.80
2019-04-25T06:08:26.803Z,11.80
2019-04-25T06:11:03.830Z,11.80
2019-04-25T06:13:53.182Z,11.80
2019-04-25T06:16:36.224Z,11.80
2019-04-25T06:19:16.424Z,11.80
2019-04-25T06:21:43.592Z,11.80
2019-04-25T06:24:18.926Z,11.70
2019-04-25T06:27:07.341Z,11.70
2019-04-25T06:29:36.843Z,11.70
2019-04-25T06:32:08.511Z,11.70
2019-04-25T06:34:37.339Z,11.70
2019-04-25T06:37:06.767Z,11.70
2019-04-25T06:39:36.047Z,11.70
2019-04-25T06:42:05.230Z,11.80
2019-04-25T06:44:43.618Z,11.80
2019-04-25T06:47:34.772Z,11.80
2019-04-25T06:50:04.364Z,11.90
2019-04-25T06:52:35.305Z,11.90
2019-04-25T06:55:06.098Z,11.90
2019-04-25T06:57:35.355Z,12.00
2019-04-25T07:00:05.615Z,12.00
2019-04-25T07:02:35.215Z,12.00
2019-04-25T07:05:05.271Z,12.10
2019-04-25T07:07:35.190Z,12.10
2019-04-25T07:10:04.844Z,12.20
2019-04-25T07:12:34.856Z,12.20
2019-04-25T07:15:06.710Z,12.30
2019-04-25T07:17:36.230Z,12.30
2019-04-25T07:20:08.671Z,12.40
2019-04-25T07:22:38.101Z,12.40
2019-04-25T07:25:10.269Z,12.30
2019-04-25T07:28:07.215Z,12.30
2019-04-25T07:30:58.666Z,12.30
2019-04-25T07:33:43.347Z,12.30
2019-04-25T07:36:13.839Z,12.30
2019-04-25T07:38:43.563Z,12.30
2019-04-25T07:41:14.757Z,12.40
2019-04-25T07:43:44.414Z,12.40
2019-04-25T07:46:13.798Z,12.40
2019-04-25T07:48:43.820Z,12.50
2019-04-25T07:51:16.338Z,12.60
2019-04-25T07:53:44.340Z,12.70
2019-04-25T07:56:14.244Z,12.80
2019-04-25T07:58:50.445Z,13.10
2019-04-25T08:01:16.086Z,13.30
2019-04-25T08:03:45.570Z,13.50
2019-04-25T08:06:14.727Z,13.70
2019-04-25T08:08:44.177Z,13.90
2019-04-25T08:11:14.094Z,14.10
2019-04-25T08:14:03.331Z,14.30
2019-04-25T08:16:34.802Z,14.40
2019-04-25T08:19:05.320Z,14.50
2019-04-25T08:21:35.673Z,14.50
2019-04-25T08:24:06.048Z,14.60
2019-04-25T08:26:36.430Z,14.70
2019-04-25T08:29:06.882Z,14.90
2019-04-25T08:31:36.641Z,15.00
2019-04-25T08:34:06.870Z,15.00
2019-04-25T08:36:38.013Z,14.90
2019-04-25T08:39:09.740Z,14.90
2019-04-25T08:41:38.944Z,15.20
2019-04-25T08:44:08.628Z,15.30
2019-04-25T08:46:39.355Z,15.40
2019-04-25T08:49:23.957Z,15.70
2019-04-25T08:51:55.527Z,15.70
2019-04-25T08:54:50.104Z,15.70
2019-04-25T08:57:38.306Z,15.60
2019-04-25T09:00:20.042Z,15.80
2019-04-25T09:02:59.638Z,15.90
2019-04-25T09:05:37.798Z,16.20
2019-04-25T09:08:08.063Z,16.40
2019-04-25T09:10:38.965Z,16.40
2019-04-25T09:13:09.005Z,16.30
2019-04-25T09:15:39.264Z,16.30
2019-04-25T09:18:08.995Z,16.50
2019-04-25T09:20:40.836Z,16.90
2019-04-25T09:23:09.414Z,16.90
2019-04-25T09:25:38.865Z,17.00
2019-04-25T09:28:08.343Z,17.20
2019-04-25T09:30:38.377Z,17.30
2019-04-25T09:33:08.066Z,17.50
2019-04-25T09:35:38.125Z,17.50
2019-04-25T09:38:07.535Z,17.60
2019-04-25T09:40:37.436Z,17.80
2019-04-25T09:43:06.719Z,17.90
2019-04-25T09:45:54.990Z,18.00
2019-04-25T09:48:44.616Z,18.10
2019-04-25T09:51:30.219Z,18.00
2019-04-25T09:54:21.528Z,17.80
2019-04-25T09:56:55.301Z,17.80
2019-04-25T09:59:28.127Z,18.00
2019-04-25T10:01:56.320Z,18.40
2019-04-25T10:04:26.117Z,18.90
2019-04-25T10:06:55.607Z,19.00
2019-04-25T10:09:25.202Z,18.90
2019-04-25T10:11:54.807Z,18.80
2019-04-25T10:14:53.984Z,18.70
2019-04-25T10:17:24.082Z,18.80
2019-04-25T10:19:53.259Z,18.60
2019-04-25T10:22:23.712Z,18.70
2019-04-25T10:25:00.401Z,18.90
2019-04-25T10:27:24.263Z,19.00
2019-04-25T10:29:56.941Z,19.00
2019-04-25T10:32:24.492Z,19.00
2019-04-25T10:34:53.723Z,19.00
2019-04-25T10:37:22.934Z,19.00
2019-04-25T10:39:55.499Z,18.90
2019-04-25T10:42:24.015Z,19.10
2019-04-25T10:44:54.487Z,19.20
2019-04-25T10:47:24.809Z,19.30
2019-04-25T10:49:55.462Z,19.40
2019-04-25T10:52:24.778Z,19.30
2019-04-25T10:54:54.401Z,19.30
2019-04-25T10:57:26.140Z,19.20
2019-04-25T11:00:06.134Z,19.10
2019-04-25T11:02:26.679Z,18.90
2019-04-25T11:05:01.286Z,18.60
2019-04-25T11:07:30.787Z,18.30
2019-04-25T11:09:59.969Z,18.20
2019-04-25T11:12:29.463Z,18.00
2019-04-25T11:14:58.637Z,17.90
2019-04-25T11:17:27.929Z,17.80
2019-04-25T11:19:57.124Z,17.60
2019-04-25T11:22:26.434Z,17.60
2019-04-25T11:24:55.610Z,17.40
2019-04-25T11:27:25.219Z,17.40
2019-04-25T11:30:08.262Z,17.30
2019-04-25T11:32:27.552Z,17.20
2019-04-25T11:34:57.348Z,17.20
2019-04-25T11:37:29.575Z,17.30
2019-04-25T11:40:08.000Z,17.30
2019-04-25T11:42:37.593Z,17.30
2019-04-25T11:45:08.820Z,17.40
2019-04-25T11:47:38.072Z,17.50
2019-04-25T11:50:08.263Z,17.50
2019-04-25T11:52:37.768Z,17.30
2019-04-25T11:55:08.600Z,17.20
2019-04-25T11:57:37.912Z,17.00
2019-04-25T12:00:07.734Z,16.40
2019-04-25T12:02:37.004Z,16.50
2019-04-25T12:05:06.327Z,16.20
2019-04-25T12:07:35.658Z,15.90
2019-04-25T12:10:06.424Z,15.70
2019-04-25T12:12:37.265Z,15.50
2019-04-25T12:15:06.605Z,15.30
2019-04-25T12:17:35.876Z,15.20
2019-04-25T12:20:05.828Z,15.10
2019-04-25T12:22:35.267Z,15.00
2019-04-25T12:25:08.033Z,15.10
2019-04-25T12:27:37.227Z,15.00
2019-04-25T12:30:07.676Z,15.00
2019-04-25T12:32:37.300Z,15.00
2019-04-25T12:35:07.340Z,14.90
2019-04-25T12:37:36.892Z,14.80
2019-04-25T12:40:07.240Z,14.70
2019-04-25T12:42:36.734Z,14.70
2019-04-25T12:45:14.139Z,14.70
2019-04-25T12:47:45.299Z,14.70
2019-04-25T12:50:18.595Z,14.60
2019-04-25T12:52:47.071Z,14.70
2019-04-25T12:55:17.198Z,14.80
2019-04-25T12:57:47.255Z,15.00
2019-04-25T13:00:22.065Z,14.90
2019-04-25T13:02:51.674Z,15.00
2019-04-25T13:05:21.943Z,15.10
2019-04-25T13:07:51.477Z,15.10
2019-04-25T13:10:23.668Z,15.00
2019-04-25T13:12:55.282Z,15.00
2019-04-25T13:15:25.755Z,14.80
2019-04-25T13:17:55.698Z,14.60
2019-04-25T13:20:25.217Z,14.30
2019-04-25T13:22:55.754Z,14.10
2019-04-25T13:25:25.104Z,14.00
2019-04-25T13:28:16.175Z,13.90
2019-04-25T13:31:03.972Z,13.80
2019-04-25T13:33:44.549Z,13.90
2019-04-25T13:36:15.418Z,13.90
2019-04-25T13:38:45.320Z,13.90
2019-04-25T13:41:14.795Z,14.00
2019-04-25T13:43:44.249Z,14.00
2019-04-25T13:46:18.528Z,14.10
2019-04-25T13:48:44.435Z,14.20
2019-04-25T13:51:14.209Z,14.20
2019-04-25T13:53:43.565Z,14.20
2019-04-25T13:56:13.394Z,14.20
2019-04-25T13:58:44.307Z,14.20
2019-04-25T14:01:17.288Z,14.20
2019-04-25T14:03:46.395Z,14.20
2019-04-25T14:06:15.649Z,14.20
2019-04-25T14:08:44.863Z,14.10
2019-04-25T14:11:14.467Z,14.10
2019-04-25T14:13:43.727Z,14.10
2019-04-25T14:16:35.065Z,14.10
2019-04-25T14:19:29.755Z,14.10
2019-04-25T14:22:00.759Z,14.20
2019-04-25T14:24:32.015Z,14.10
2019-04-25T14:27:01.560Z,14.20
2019-04-25T14:29:31.121Z,14.30
2019-04-25T14:32:00.355Z,14.40
2019-04-25T14:34:29.905Z,14.50
2019-04-25T14:36:59.471Z,14.50
2019-04-25T14:39:29.531Z,14.50
2019-04-25T14:41:59.053Z,14.40
2019-04-25T14:44:28.611Z,14.50
2019-04-25T14:46:57.920Z,14.60
2019-04-25T14:49:27.127Z,14.70
2019-04-25T14:51:56.362Z,15.00
2019-04-25T14:54:50.373Z,15.20
2019-04-25T14:57:26.113Z,15.30
2019-04-25T14:59:55.707Z,15.50
2019-04-25T15:02:26.493Z,15.50
2019-04-25T15:04:55.999Z,15.50
2019-04-25T15:07:25.326Z,15.50
2019-04-25T15:09:54.726Z,15.60
2019-04-25T15:12:24.754Z,15.60
2019-04-25T15:14:53.995Z,15.50
2019-04-25T15:17:23.754Z,15.50
2019-04-25T15:19:53.031Z,15.60
2019-04-25T15:22:23.217Z,15.80
2019-04-25T15:24:53.443Z,15.80
2019-04-25T15:27:22.711Z,15.90
2019-04-25T15:29:52.446Z,15.90
2019-04-25T15:32:24.077Z,15.70
2019-04-25T15:34:57.272Z,15.60
2019-04-25T15:37:35.166Z,15.60
2019-04-25T15:40:32.353Z,15.80
2019-04-25T15:43:20.617Z,15.90
2019-04-25T15:46:04.113Z,15.90
2019-04-25T15:48:33.336Z,15.80
2019-04-25T15:51:02.502Z,15.70
2019-04-25T15:53:32.048Z,15.60
2019-04-25T15:56:01.493Z,15.40
2019-04-25T15:58:30.752Z,15.30
2019-04-25T16:01:00.203Z,15.20
2019-04-25T16:03:29.498Z,15.10
2019-04-25T16:05:59.184Z,15.10
2019-04-25T16:08:28.808Z,15.00
2019-04-25T16:10:58.140Z,15.00
2019-04-25T16:13:28.240Z,15.10
2019-04-25T16:15:57.610Z,15.10
2019-04-25T16:18:27.317Z,15.20
2019-04-25T16:20:57.271Z,15.20
2019-04-25T16:23:26.664Z,15.30
2019-04-25T16:25:56.627Z,15.40
2019-04-25T16:28:26.547Z,15.50
2019-04-25T16:30:56.804Z,15.60
2019-04-25T16:33:26.056Z,15.60
2019-04-25T16:35:55.220Z,15.50
2019-04-25T16:38:24.970Z,15.30
2019-04-25T16:40:54.248Z,15.20
2019-04-25T16:43:26.247Z,15.10
2019-04-25T16:45:55.756Z,15.00
2019-04-25T16:48:25.061Z,14.90
2019-04-25T16:50:54.251Z,14.80
2019-04-25T16:53:24.105Z,14.60
2019-04-25T16:55:53.335Z,14.60
2019-04-25T16:58:23.430Z,14.50
2019-04-25T17:00:58.207Z,14.50
2019-04-25T17:03:28.980Z,14.50
2019-04-25T17:05:59.314Z,14.50
2019-04-25T17:08:28.574Z,14.50
2019-04-25T17:10:57.968Z,14.40
2019-04-25T17:13:29.473Z,14.40
2019-04-25T17:16:17.914Z,14.30
2019-04-25T17:18:52.282Z,14.30
2019-04-25T17:21:21.867Z,14.20
2019-04-25T17:23:51.274Z,14.20
2019-04-25T17:26:22.010Z,14.10
2019-04-25T17:28:52.925Z,14.10
2019-04-25T17:31:34.989Z,14.10
2019-04-25T17:34:15.991Z,14.00
2019-04-25T17:36:54.861Z,14.00
2019-04-25T17:39:37.507Z,14.00
2019-04-25T17:42:06.758Z,14.00
2019-04-25T17:44:36.569Z,13.90
2019-04-25T17:47:06.698Z,13.70
2019-04-25T17:49:36.799Z,13.50
2019-04-25T17:52:06.095Z,13.40
2019-04-25T17:54:36.395Z,13.20
2019-04-25T17:57:06.737Z,13.10
2019-04-25T17:59:36.906Z,13.00
2019-04-25T18:02:06.655Z,12.90
2019-04-25T18:04:36.205Z,12.80
2019-04-25T18:07:05.579Z,12.80
2019-04-25T18:09:35.540Z,12.70
2019-04-25T18:12:05.463Z,12.70
2019-04-25T18:14:35.257Z,12.60
2019-04-25T18:17:04.952Z,12.60
2019-04-25T18:19:53.153Z,12.60
2019-04-25T18:22:47.456Z,12.60
2019-04-25T18:25:25.936Z,12.60
2019-04-25T18:28:20.049Z,12.60
2019-04-25T18:30:49.779Z,12.60
2019-04-25T18:33:29.920Z,12.60
2019-04-25T18:36:18.467Z,12.50
2019-04-25T18:39:05.194Z,12.60
2019-04-25T18:41:39.782Z,12.60
2019-04-25T18:44:09.356Z,12.60
2019-04-25T18:46:42.488Z,12.60
2019-04-25T18:49:11.948Z,12.50
2019-04-25T18:51:41.281Z,12.50
2019-04-25T18:54:30.580Z,12.50
2019-04-25T18:57:10.302Z,12.40
2019-04-25T19:00:07.670Z,12.40
2019-04-25T19:02:49.012Z,12.40
2019-04-25T19:05:40.974Z,12.30
2019-04-25T19:08:10.849Z,12.30
2019-04-25T19:10:40.777Z,12.20
2019-04-25T19:13:12.818Z,12.20
2019-04-25T19:15:41.273Z,12.20
2019-04-25T19:18:10.563Z,12.10
2019-04-25T19:20:40.122Z,12.10
2019-04-25T19:23:09.374Z,12.10
2019-04-25T19:25:40.151Z,12.10
2019-04-25T19:28:09.583Z,12.10
2019-04-25T19:30:39.752Z,12.10
2019-04-25T19:33:09.358Z,12.10
2019-04-25T19:35:39.527Z,12.00
2019-04-25T19:38:09.668Z,12.00
2019-04-25T19:40:57.982Z,11.90
2019-04-25T19:43:31.271Z,11.90
2019-04-25T19:46:00.600Z,11.90
2019-04-25T19:48:30.263Z,11.90
2019-04-25T19:50:59.458Z,11.80
2019-04-25T19:53:28.720Z,11.80
2019-04-25T19:55:57.953Z,11.80
2019-04-25T19:58:27.241Z,11.80
2019-04-25T20:00:57.010Z,11.70
2019-04-25T20:03:47.295Z,11.60
2019-04-25T20:06:15.742Z,11.60
2019-04-25T20:08:58.580Z,11.60
2019-04-25T20:11:40.728Z,11.60
2019-04-25T20:14:10.073Z,11.50
2019-04-25T20:16:46.036Z,11.50
2019-04-25T20:19:15.473Z,11.50
2019-04-25T20:21:45.729Z,11.40
2019-04-25T20:24:15.083Z,11.40
2019-04-25T20:26:45.012Z,11.40
2019-04-25T20:29:15.302Z,11.40
2019-04-25T20:31:45.293Z,11.40
2019-04-25T20:34:14.592Z,11.30
2019-04-25T20:36:44.661Z,11.30
2019-04-25T20:39:14.849Z,11.30
2019-04-25T20:41:44.129Z,11.30
2019-04-25T20:44:13.438Z,11.20
2019-04-25T20:46:43.185Z,11.20
2019-04-25T20:49:12.707Z,11.20
2019-04-25T20:51:43.894Z,11.10
2019-04-25T20:54:13.105Z,11.10
2019-04-25T20:56:42.610Z,11.10
2019-04-25T20:59:11.739Z,11.10
2019-04-25T21:01:40.966Z,11.10
2019-04-25T21:04:29.443Z,11.10
2019-04-25T21:06:59.398Z,11.00
2019-04-25T21:09:28.701Z,11.00
2019-04-25T21:11:58.211Z,11.10
2019-04-25T21:14:35.213Z,11.00
2019-04-25T21:17:10.392Z,11.00
2019-04-25T21:19:42.706Z,11.00
2019-04-25T21:22:11.887Z,11.00
2019-04-25T21:24:41.505Z,11.00
2019-04-25T21:27:10.907Z,10.90
2019-04-25T21:29:40.157Z,10.90
2019-04-25T21:32:09.479Z,10.90
2019-04-25T21:34:38.675Z,10.90
2019-04-25T21:37:08.111Z,10.80
2019-04-25T21:39:51.268Z,10.80
2019-04-25T21:42:42.979Z,10.80
2019-04-25T21:45:12.527Z,10.80
2019-04-25T21:47:42.272Z,10.80
2019-04-25T21:50:11.808Z,10.80
2019-04-25T21:52:41.816Z,10.80
2019-04-25T21:55:11.539Z,10.80
2019-04-25T21:57:41.071Z,10.70
2019-04-25T22:00:13.699Z,10.70
2019-04-25T22:02:43.410Z,10.70
2019-04-25T22:05:12.946Z,10.70
2019-04-25T22:07:42.691Z,10.70
2019-04-25T22:10:12.318Z,10.70
2019-04-25T22:12:41.550Z,10.60
2019-04-25T22:15:13.122Z,10.60
2019-04-25T22:17:42.360Z,10.50
2019-04-25T22:20:11.796Z,10.40
2019-04-25T22:22:41.403Z,10.30
2019-04-25T22:25:10.586Z,10.30
2019-04-25T22:27:40.110Z,10.30
2019-04-25T22:30:11.287Z,10.20
2019-04-25T22:32:51.182Z,10.20
2019-04-25T22:35:45.969Z,10.10
2019-04-25T22:38:15.586Z,10.10
2019-04-25T22:40:44.822Z,10.00
2019-04-25T22:43:14.972Z,9.90
2019-04-25T22:45:44.904Z,9.90
2019-04-25T22:48:15.809Z,9.90
2019-04-25T22:50:45.343Z,9.80
2019-04-25T22:53:22.577Z,9.80
2019-04-25T22:55:45.910Z,9.80
2019-04-25T22:58:15.067Z,9.70
2019-04-25T23:00:44.745Z,9.80
2019-04-25T23:03:20.238Z,9.70
2019-04-25T23:05:53.077Z,9.80
2019-04-25T23:08:22.997Z,9.70
2019-04-25T23:10:52.603Z,9.70
2019-04-25T23:13:22.196Z,9.70
2019-04-25T23:15:51.818Z,9.60
2019-04-25T23:18:21.362Z,9.60
2019-04-25T23:20:50.803Z,9.60
2019-04-25T23:23:20.275Z,9.50
2019-04-25T23:26:07.908Z,9.50
2019-04-25T23:28:39.882Z,9.50
2019-04-25T23:31:19.446Z,9.60
2019-04-25T23:33:48.983Z,9.60
2019-04-25T23:36:18.566Z,9.60
2019-04-25T23:38:48.078Z,9.70
2019-04-25T23:41:17.631Z,9.70
2019-04-25T23:43:46.845Z,9.80
2019-04-25T23:46:16.313Z,9.80
2019-04-25T23:48:45.621Z,9.80
2019-04-25T23:51:15.425Z,9.80
2019-04-25T23:53:44.898Z,9.90
2019-04-25T23:56:15.170Z,9.80
2019-04-25T23:58:44.783Z,9.80
